Terminal Aerodrome Forecast
Issued by NWS

Home | Current Version | Previous Version | Text Only | Print | Product List | Glossary On
Versions: 1 2 3 4 5 6 7 8 9 10 11 12
000
FTUS46 KSTO 301100
TAFSAC
TAF
KSAC 301120Z 3012/3112 15004KT P6SM SCT200
     FM301700 22007KT P6SM FEW250
     FM310000 22012G18KT P6SM SKC
     FM310600 18006KT P6SM SKC=

USA.gov is the U.S. government's official web portal to all federal, state and local government web resources and services.